createdAt,value
2024-02-14T00:00:01.164Z,21.10
2024-02-14T00:02:34.805Z,16.10
2024-02-14T00:05:08.130Z,15.60
2024-02-14T00:07:42.128Z,14.90
2024-02-14T00:10:14.674Z,14.50
2024-02-14T00:12:50.136Z,18.00
2024-02-14T00:15:34.114Z,13.60
2024-02-14T00:18:10.112Z,15.20
2024-02-14T00:20:44.208Z,13.10
2024-02-14T00:23:16.575Z,17.90
2024-02-14T00:25:50.283Z,14.10
2024-02-14T00:28:25.215Z,15.90
2024-02-14T00:30:57.995Z,18.50
2024-02-14T00:33:35.149Z,16.60
2024-02-14T00:36:12.036Z,15.00
2024-02-14T00:38:45.241Z,15.10
2024-02-14T00:41:18.103Z,15.40
2024-02-14T00:43:50.276Z,17.40
2024-02-14T00:46:22.359Z,18.20
2024-02-14T00:48:55.823Z,14.60
2024-02-14T00:51:30.948Z,12.90
2024-02-14T00:54:03.100Z,16.60
2024-02-14T00:56:35.649Z,14.00
2024-02-14T00:59:09.052Z,14.50
2024-02-14T01:01:42.442Z,13.60
2024-02-14T01:04:15.237Z,17.20
2024-02-14T01:06:51.171Z,17.30
2024-02-14T01:09:24.192Z,14.20
2024-02-14T01:11:57.279Z,17.30
2024-02-14T01:14:29.498Z,17.50
2024-02-14T01:17:02.111Z,14.50
2024-02-14T01:19:35.076Z,15.80
2024-02-14T01:22:12.330Z,15.90
2024-02-14T01:24:44.452Z,15.40
2024-02-14T01:27:18.306Z,14.30
2024-02-14T01:29:50.580Z,16.60
2024-02-14T01:32:22.934Z,14.00
2024-02-14T01:34:55.388Z,11.20
2024-02-14T01:37:30.994Z,16.30
2024-02-14T01:40:04.563Z,14.00
2024-02-14T01:42:37.383Z,13.70
2024-02-14T01:45:19.880Z,20.10
2024-02-14T01:47:54.216Z,19.40
2024-02-14T01:50:31.234Z,19.40
2024-02-14T01:53:12.890Z,19.00
2024-02-14T01:55:46.502Z,15.60
2024-02-14T01:58:19.603Z,16.50
2024-02-14T02:00:52.419Z,21.20
2024-02-14T02:03:30.933Z,17.60
2024-02-14T02:06:03.637Z,18.40
2024-02-14T02:08:37.080Z,16.00
2024-02-14T02:11:10.153Z,17.50
2024-02-14T02:13:43.004Z,17.70
2024-02-14T02:16:16.732Z,14.80
2024-02-14T02:18:51.712Z,14.40
2024-02-14T02:21:25.463Z,16.00
2024-02-14T02:23:59.935Z,15.00
2024-02-14T02:26:32.129Z,15.90
2024-02-14T02:29:04.682Z,18.60
2024-02-14T02:31:36.801Z,15.40
2024-02-14T02:34:12.983Z,15.80
2024-02-14T02:36:46.995Z,13.00
2024-02-14T02:39:21.974Z,13.40
2024-02-14T02:41:56.584Z,14.80
2024-02-14T02:44:31.268Z,22.90
2024-02-14T02:47:03.329Z,20.40
2024-02-14T02:49:38.743Z,19.60
2024-02-14T02:52:11.710Z,18.70
2024-02-14T02:54:47.995Z,15.80
2024-02-14T02:57:23.162Z,19.00
2024-02-14T02:59:57.793Z,21.40
2024-02-14T03:02:30.847Z,18.80
2024-02-14T03:05:05.631Z,20.20
2024-02-14T03:07:38.430Z,19.50
2024-02-14T03:10:15.200Z,17.30
2024-02-14T03:12:53.308Z,14.40
2024-02-14T03:15:27.220Z,14.90
2024-02-14T03:18:00.678Z,15.00
2024-02-14T03:20:34.768Z,20.60
2024-02-14T03:23:11.358Z,18.50
2024-02-14T03:25:43.499Z,21.40
2024-02-14T03:28:18.287Z,22.20
2024-02-14T03:30:50.616Z,19.10
2024-02-14T03:33:23.202Z,22.60
2024-02-14T03:35:56.123Z,15.20
2024-02-14T03:38:33.570Z,21.00
2024-02-14T03:41:05.961Z,15.60
2024-02-14T03:43:38.227Z,20.80
2024-02-14T03:46:10.392Z,15.20
2024-02-14T03:48:43.247Z,17.40
2024-02-14T03:51:16.851Z,17.50
2024-02-14T03:53:49.268Z,19.60
2024-02-14T03:56:21.907Z,18.30
2024-02-14T03:58:53.871Z,16.00
2024-02-14T04:01:26.566Z,17.60
2024-02-14T04:03:58.833Z,20.40
2024-02-14T04:06:36.295Z,16.60
2024-02-14T04:09:11.491Z,19.60
2024-02-14T04:11:44.651Z,20.00
2024-02-14T04:14:17.048Z,18.80
2024-02-14T04:16:50.007Z,17.50
2024-02-14T04:19:23.106Z,18.40
2024-02-14T04:21:56.738Z,16.40
2024-02-14T04:24:28.936Z,19.70
2024-02-14T04:27:04.061Z,19.20
2024-02-14T04:29:36.495Z,22.80
2024-02-14T04:32:10.460Z,16.60
2024-02-14T04:34:45.177Z,14.80
2024-02-14T04:37:20.096Z,17.80
2024-02-14T04:39:52.402Z,20.70
2024-02-14T04:42:25.262Z,22.60
2024-02-14T04:44:58.833Z,20.50
2024-02-14T04:47:54.882Z,19.90
2024-02-14T04:50:35.603Z,23.50
2024-02-14T04:53:27.585Z,18.00
2024-02-14T04:56:03.826Z,21.90
2024-02-14T04:58:40.481Z,15.20
2024-02-14T05:01:16.969Z,21.70
2024-02-14T05:04:05.105Z,21.20
2024-02-14T05:06:42.116Z,20.70
2024-02-14T05:09:16.775Z,21.20
2024-02-14T05:11:51.633Z,17.20
2024-02-14T05:14:24.899Z,26.20
2024-02-14T05:17:09.576Z,18.70
2024-02-14T05:19:43.835Z,25.20
2024-02-14T05:22:16.144Z,20.00
2024-02-14T05:24:49.001Z,22.80
2024-02-14T05:27:21.545Z,22.70
2024-02-14T05:29:56.992Z,22.70
2024-02-14T05:32:32.964Z,22.30
2024-02-14T05:35:11.430Z,24.40
2024-02-14T05:37:51.621Z,20.90
2024-02-14T05:40:27.761Z,21.40
2024-02-14T05:43:00.041Z,31.00
2024-02-14T05:45:36.368Z,32.30
2024-02-14T05:48:21.485Z,32.80
2024-02-14T05:50:56.570Z,49.30
2024-02-14T05:53:29.490Z,35.60
2024-02-14T05:56:02.786Z,44.40
2024-02-14T05:58:34.861Z,46.10
2024-02-14T06:01:09.769Z,42.90
2024-02-14T06:03:43.587Z,27.90
2024-02-14T06:06:16.110Z,28.20
2024-02-14T06:08:56.278Z,31.00
2024-02-14T06:11:28.918Z,32.00
2024-02-14T06:14:04.610Z,20.20
2024-02-14T06:16:51.716Z,31.00
2024-02-14T06:19:24.057Z,25.80
2024-02-14T06:21:56.486Z,24.20
2024-02-14T06:24:28.515Z,28.10
2024-02-14T06:27:01.311Z,26.00
2024-02-14T06:29:37.585Z,27.10
2024-02-14T06:32:10.956Z,36.70
2024-02-14T06:34:43.321Z,24.70
2024-02-14T06:37:16.088Z,24.80
2024-02-14T06:39:49.640Z,30.70
2024-02-14T06:42:21.990Z,31.70
2024-02-14T06:45:01.430Z,27.00
2024-02-14T06:47:34.010Z,35.30
2024-02-14T06:52:39.174Z,31.40
2024-02-14T06:55:15.750Z,30.30
2024-02-14T06:57:48.475Z,29.60
2024-02-14T07:00:21.796Z,27.00
2024-02-14T07:02:55.393Z,26.40
2024-02-14T07:05:27.840Z,20.90
2024-02-14T07:08:02.753Z,20.20
2024-02-14T07:10:37.521Z,16.70
2024-02-14T07:13:10.679Z,23.70
2024-02-14T07:15:42.839Z,23.30
2024-02-14T07:18:16.230Z,22.00
2024-02-14T07:20:50.323Z,21.50
2024-02-14T07:23:23.275Z,24.90
2024-02-14T07:25:55.419Z,24.90
2024-02-14T07:28:30.126Z,21.10
2024-02-14T07:31:03.522Z,20.70
2024-02-14T07:33:36.932Z,20.80
2024-02-14T07:36:10.500Z,18.40
2024-02-14T07:38:44.937Z,23.50
2024-02-14T07:41:19.685Z,19.20
2024-02-14T07:43:55.124Z,21.20
2024-02-14T07:46:41.346Z,27.80
2024-02-14T07:49:14.234Z,22.80
2024-02-14T07:51:46.583Z,23.80
2024-02-14T07:54:20.554Z,27.20
2024-02-14T07:56:52.739Z,24.90
2024-02-14T07:59:26.339Z,25.80
2024-02-14T08:02:01.792Z,19.40
2024-02-14T08:04:35.659Z,21.30
2024-02-14T08:07:08.121Z,22.50
2024-02-14T08:09:41.714Z,22.70
2024-02-14T08:12:14.268Z,24.40
2024-02-14T08:14:46.699Z,21.70
2024-02-14T08:17:19.156Z,22.10
2024-02-14T08:19:51.568Z,16.90
2024-02-14T08:22:23.713Z,20.80
2024-02-14T08:24:57.295Z,19.20
2024-02-14T08:27:29.738Z,19.20
2024-02-14T08:30:04.027Z,20.60
2024-02-14T08:32:37.328Z,15.60
2024-02-14T08:35:15.461Z,20.40
2024-02-14T08:37:47.497Z,17.00
2024-02-14T08:40:20.062Z,18.30
2024-02-14T08:42:52.273Z,18.60
2024-02-14T08:45:24.726Z,19.20
2024-02-14T08:47:56.893Z,14.10
2024-02-14T08:50:29.225Z,17.50
2024-02-14T08:53:04.133Z,19.90
2024-02-14T08:55:42.586Z,18.50
2024-02-14T08:58:14.734Z,19.70
2024-02-14T09:00:48.738Z,15.70
2024-02-14T09:03:33.694Z,16.80
2024-02-14T09:06:13.062Z,20.70
2024-02-14T09:08:47.833Z,18.60
2024-02-14T09:11:21.725Z,13.70
2024-02-14T09:14:00.707Z,15.20
2024-02-14T09:16:40.974Z,13.20
2024-02-14T09:19:14.145Z,8.30
2024-02-14T09:21:46.617Z,12.50
2024-02-14T09:24:18.942Z,13.60
2024-02-14T09:26:52.116Z,11.60
2024-02-14T09:29:24.658Z,9.80
2024-02-14T09:31:57.162Z,10.10
2024-02-14T09:34:29.337Z,10.00
2024-02-14T09:37:02.451Z,11.50
2024-02-14T09:39:38.172Z,9.90
2024-02-14T09:42:15.817Z,9.40
2024-02-14T09:44:50.535Z,5.60
2024-02-14T09:47:23.266Z,14.40
2024-02-14T09:49:56.452Z,8.40
2024-02-14T09:52:29.302Z,5.90
2024-02-14T09:55:01.994Z,8.80
2024-02-14T09:57:37.012Z,8.60
2024-02-14T10:00:11.830Z,6.60
2024-02-14T10:02:44.740Z,7.10
2024-02-14T10:05:16.914Z,5.70
2024-02-14T10:07:49.339Z,6.90
2024-02-14T10:10:23.116Z,6.60
2024-02-14T10:12:56.704Z,19.10
2024-02-14T10:15:28.719Z,5.20
2024-02-14T10:18:02.409Z,10.80
2024-02-14T10:20:36.519Z,9.70
2024-02-14T10:23:13.381Z,4.90
2024-02-14T10:25:45.900Z,12.80
2024-02-14T10:28:19.237Z,8.90
2024-02-14T10:30:52.005Z,13.10
2024-02-14T10:33:27.826Z,5.30
2024-02-14T10:36:04.277Z,5.10
2024-02-14T10:38:40.023Z,12.40
2024-02-14T10:41:13.881Z,8.30
2024-02-14T10:43:47.009Z,7.00
2024-02-14T10:46:26.532Z,5.70
2024-02-14T10:49:05.857Z,12.60
2024-02-14T10:51:42.447Z,5.80
2024-02-14T10:54:18.323Z,12.70
2024-02-14T10:56:56.618Z,4.00
2024-02-14T10:59:31.712Z,9.10
2024-02-14T11:02:06.664Z,7.00
2024-02-14T11:04:41.256Z,7.60
2024-02-14T11:07:16.621Z,5.90
2024-02-14T11:09:49.064Z,6.00
2024-02-14T11:12:25.257Z,7.60
2024-02-14T11:15:03.976Z,5.00
2024-02-14T11:17:36.664Z,11.70
2024-02-14T11:20:20.308Z,7.60
2024-02-14T11:22:58.500Z,5.40
2024-02-14T11:25:35.587Z,5.90
2024-02-14T11:28:21.526Z,3.70
2024-02-14T11:30:56.572Z,5.00
2024-02-14T11:33:28.730Z,5.10
2024-02-14T11:36:05.986Z,6.30
2024-02-14T11:38:38.385Z,5.80
2024-02-14T11:41:14.633Z,3.60
2024-02-14T11:43:55.825Z,6.00
2024-02-14T11:46:32.775Z,21.40
2024-02-14T11:49:28.679Z,4.30
2024-02-14T11:52:01.237Z,5.60
2024-02-14T11:54:35.097Z,3.50
2024-02-14T11:57:09.771Z,3.90
2024-02-14T11:59:50.977Z,7.40
2024-02-14T12:04:56.539Z,16.00
2024-02-14T12:07:29.665Z,3.10
2024-02-14T12:10:01.931Z,4.50
2024-02-14T12:12:35.318Z,6.40
2024-02-14T12:15:12.299Z,19.00
2024-02-14T12:17:45.011Z,4.80
2024-02-14T12:20:18.281Z,3.70
2024-02-14T12:22:55.378Z,11.40
2024-02-14T12:25:27.814Z,12.10
2024-02-14T12:28:02.045Z,4.50
2024-02-14T12:30:51.227Z,3.00
2024-02-14T12:33:26.337Z,4.00
2024-02-14T12:35:59.971Z,7.60
2024-02-14T12:38:36.514Z,3.00
2024-02-14T12:41:11.498Z,3.20
2024-02-14T12:43:44.902Z,4.30
2024-02-14T12:46:18.567Z,5.20
2024-02-14T12:48:58.361Z,4.10
2024-02-14T12:51:32.322Z,6.90
2024-02-14T12:54:13.842Z,3.90
2024-02-14T12:56:52.493Z,10.20
2024-02-14T12:59:25.834Z,14.80
2024-02-14T13:01:58.179Z,11.70
2024-02-14T13:04:37.922Z,8.00
2024-02-14T13:07:13.556Z,12.30
2024-02-14T13:09:47.215Z,10.80
2024-02-14T13:12:19.958Z,3.90
2024-02-14T13:14:53.035Z,3.50
2024-02-14T13:17:31.001Z,3.70
2024-02-14T13:20:09.832Z,6.30
2024-02-14T13:22:43.262Z,3.30
2024-02-14T13:25:16.989Z,4.90
2024-02-14T13:27:50.421Z,9.80
2024-02-14T13:30:22.995Z,15.20
2024-02-14T13:32:55.293Z,7.10
2024-02-14T13:35:28.152Z,8.20
2024-02-14T13:38:00.377Z,6.00
2024-02-14T13:40:32.998Z,5.70
2024-02-14T13:43:06.108Z,3.80
2024-02-14T13:45:45.532Z,7.00
2024-02-14T13:48:18.185Z,13.30
2024-02-14T13:50:52.740Z,5.60
2024-02-14T13:53:24.920Z,5.40
2024-02-14T13:55:57.523Z,4.40
2024-02-14T13:58:29.750Z,4.50
2024-02-14T14:01:02.229Z,7.90
2024-02-14T14:03:36.335Z,5.10
2024-02-14T14:06:10.033Z,4.90
2024-02-14T14:08:45.098Z,5.30
2024-02-14T14:11:20.239Z,3.60
2024-02-14T14:13:52.721Z,2.90
2024-02-14T14:16:27.230Z,6.00
2024-02-14T14:19:05.128Z,5.00
2024-02-14T14:21:56.877Z,5.00
2024-02-14T14:24:37.149Z,5.60
2024-02-14T14:27:16.129Z,6.70
2024-02-14T14:30:02.406Z,6.10
2024-02-14T14:32:36.285Z,6.40
2024-02-14T14:35:12.362Z,5.10
2024-02-14T14:38:13.853Z,4.10
2024-02-14T14:40:46.946Z,4.80
2024-02-14T14:43:40.199Z,5.00
2024-02-14T14:46:32.180Z,3.60
2024-02-14T14:49:22.301Z,12.30
2024-02-14T14:51:58.708Z,7.50
2024-02-14T14:54:31.133Z,9.00
2024-02-14T14:57:05.735Z,4.00
2024-02-14T14:59:40.560Z,5.30
2024-02-14T15:02:12.858Z,4.20
2024-02-14T15:04:47.858Z,7.30
2024-02-14T15:07:24.653Z,4.10
2024-02-14T15:09:57.012Z,6.70
2024-02-14T15:12:29.059Z,7.70
2024-02-14T15:15:01.764Z,8.80
2024-02-14T15:17:35.396Z,8.70
2024-02-14T15:20:09.666Z,13.30
2024-02-14T15:22:41.761Z,16.40
2024-02-14T15:25:14.321Z,12.90
2024-02-14T15:27:55.883Z,9.40
2024-02-14T15:30:46.648Z,8.60
2024-02-14T15:33:29.356Z,11.40
2024-02-14T15:36:02.314Z,7.10
2024-02-14T15:38:35.606Z,13.20
2024-02-14T15:41:08.726Z,10.80
2024-02-14T15:43:45.282Z,8.00
2024-02-14T15:46:25.242Z,12.00
2024-02-14T15:48:57.341Z,10.00
2024-02-14T15:51:29.603Z,16.60
2024-02-14T15:54:04.265Z,11.20
2024-02-14T15:56:41.195Z,15.50
2024-02-14T15:59:16.631Z,13.90
2024-02-14T16:01:57.186Z,12.00
2024-02-14T16:04:30.146Z,8.00
2024-02-14T16:07:05.506Z,13.50
2024-02-14T16:09:39.240Z,15.50
2024-02-14T16:12:12.935Z,14.60
2024-02-14T16:14:46.422Z,15.70
2024-02-14T16:17:23.815Z,17.30
2024-02-14T16:19:58.550Z,18.80
2024-02-14T16:22:31.419Z,20.60
2024-02-14T16:25:08.975Z,12.60
2024-02-14T16:27:42.903Z,15.10
2024-02-14T16:30:16.908Z,16.30
2024-02-14T16:32:49.694Z,17.20
2024-02-14T16:35:39.513Z,13.90
2024-02-14T16:38:36.561Z,10.60
2024-02-14T16:41:29.159Z,12.30
2024-02-14T16:44:08.725Z,8.40
2024-02-14T16:47:12.446Z,14.50
2024-02-14T16:49:51.396Z,11.40
2024-02-14T16:52:37.259Z,13.40
2024-02-14T16:55:13.437Z,11.00
2024-02-14T16:57:48.006Z,9.00
2024-02-14T17:00:24.525Z,10.70
2024-02-14T17:03:05.837Z,6.80
2024-02-14T17:05:50.188Z,10.30
2024-02-14T17:08:25.039Z,12.60
2024-02-14T17:10:59.946Z,7.50
2024-02-14T17:14:24.142Z,10.10
2024-02-14T17:17:23.045Z,10.90
2024-02-14T17:20:30.692Z,16.70
2024-02-14T17:23:48.530Z,14.10
2024-02-14T17:26:23.301Z,16.20
2024-02-14T17:28:55.725Z,17.60
2024-02-14T17:31:34.148Z,25.90
2024-02-14T17:34:11.788Z,30.80
2024-02-14T17:36:46.291Z,49.60
2024-02-14T17:39:18.744Z,50.30
2024-02-14T17:41:52.048Z,34.70
2024-02-14T17:44:26.405Z,29.40
2024-02-14T17:46:58.910Z,26.20
2024-02-14T17:49:32.477Z,21.90
2024-02-14T17:52:06.015Z,24.30
2024-02-14T17:54:40.161Z,20.60
2024-02-14T17:57:20.357Z,20.90
2024-02-14T17:59:53.339Z,20.90
2024-02-14T18:02:26.432Z,19.40
2024-02-14T18:05:00.606Z,18.40
2024-02-14T18:07:34.661Z,17.30
2024-02-14T18:10:07.684Z,18.10
2024-02-14T18:12:40.195Z,20.00
2024-02-14T18:15:17.189Z,16.30
2024-02-14T18:17:50.139Z,16.60
2024-02-14T18:20:22.293Z,15.10
2024-02-14T18:22:54.382Z,15.90
2024-02-14T18:25:26.729Z,18.80
2024-02-14T18:28:01.416Z,16.30
2024-02-14T18:30:39.035Z,15.20
2024-02-14T18:33:15.602Z,18.00
2024-02-14T18:35:48.209Z,18.00
2024-02-14T18:38:23.467Z,17.40
2024-02-14T18:40:55.944Z,19.80
2024-02-14T18:43:28.168Z,18.70
2024-02-14T18:46:00.652Z,18.30
2024-02-14T18:48:33.414Z,16.20
2024-02-14T18:51:06.594Z,14.20
2024-02-14T18:53:42.806Z,12.90
2024-02-14T18:56:18.418Z,17.10
2024-02-14T18:58:51.438Z,14.40
2024-02-14T19:01:27.174Z,13.90
2024-02-14T19:04:01.883Z,10.60
2024-02-14T19:06:37.234Z,14.30
2024-02-14T19:09:13.222Z,13.50
2024-02-14T19:11:48.543Z,8.50
2024-02-14T19:14:23.956Z,10.90
2024-02-14T19:16:56.307Z,13.30
2024-02-14T19:19:30.584Z,7.60
2024-02-14T19:22:03.747Z,12.00
2024-02-14T19:24:38.968Z,9.30
2024-02-14T19:27:11.446Z,13.70
2024-02-14T19:29:43.946Z,14.10
2024-02-14T19:32:19.327Z,11.60
2024-02-14T19:34:51.531Z,9.40
2024-02-14T19:37:24.402Z,12.10
2024-02-14T19:39:57.168Z,8.70
2024-02-14T19:42:30.184Z,8.60
2024-02-14T19:45:02.597Z,12.00
2024-02-14T19:47:36.430Z,12.00
2024-02-14T19:50:12.187Z,21.50
2024-02-14T19:52:49.398Z,15.40
2024-02-14T19:55:24.397Z,11.90
2024-02-14T19:57:56.595Z,11.60
2024-02-14T20:00:29.495Z,14.30
2024-02-14T20:03:03.363Z,11.40
2024-02-14T20:05:38.783Z,11.70
2024-02-14T20:08:15.399Z,14.70
2024-02-14T20:10:48.124Z,16.90
2024-02-14T20:13:21.358Z,17.30
2024-02-14T20:15:54.328Z,12.30
2024-02-14T20:18:36.513Z,13.80
2024-02-14T20:21:14.333Z,17.20
2024-02-14T20:23:47.273Z,18.90
2024-02-14T20:26:19.750Z,18.50
2024-02-14T20:28:53.288Z,18.40
2024-02-14T20:31:32.966Z,21.70
2024-02-14T20:34:06.726Z,18.60
2024-02-14T20:36:42.762Z,24.50
2024-02-14T20:39:17.484Z,27.60
2024-02-14T20:41:50.710Z,22.50
2024-02-14T20:44:25.473Z,18.40
2024-02-14T20:46:57.929Z,18.10
2024-02-14T20:49:31.217Z,18.20
2024-02-14T20:52:04.350Z,18.70
2024-02-14T20:54:40.202Z,13.60
2024-02-14T20:57:16.192Z,16.40
2024-02-14T20:59:49.509Z,18.10
2024-02-14T21:02:22.140Z,15.50
2024-02-14T21:04:54.617Z,20.70
2024-02-14T21:07:28.246Z,15.90
2024-02-14T21:10:00.626Z,19.60
2024-02-14T21:12:33.550Z,12.40
2024-02-14T21:15:16.078Z,16.30
2024-02-14T21:17:49.720Z,15.60
2024-02-14T21:20:22.695Z,16.00
2024-02-14T21:22:57.885Z,18.80
2024-02-14T21:25:30.756Z,26.50
2024-02-14T21:28:03.748Z,14.20
2024-02-14T21:30:41.483Z,17.30
2024-02-14T21:33:18.216Z,19.70
2024-02-14T21:35:51.392Z,26.30
2024-02-14T21:38:24.676Z,24.80
2024-02-14T21:40:57.619Z,26.50
2024-02-14T21:43:32.723Z,23.40
2024-02-14T21:46:16.394Z,19.20
2024-02-14T21:48:49.241Z,17.90
2024-02-14T21:51:22.446Z,26.80
2024-02-14T21:53:55.797Z,22.10
2024-02-14T21:56:28.397Z,27.30
2024-02-14T21:59:04.137Z,21.40
2024-02-14T22:01:44.557Z,16.30
2024-02-14T22:04:18.138Z,18.10
2024-02-14T22:06:57.126Z,15.10
2024-02-14T22:09:30.814Z,15.90
2024-02-14T22:12:03.671Z,12.50
2024-02-14T22:14:38.275Z,13.60
2024-02-14T22:17:13.290Z,13.40
2024-02-14T22:19:49.642Z,11.50
2024-02-14T22:22:22.582Z,14.70
2024-02-14T22:24:55.145Z,9.90
2024-02-14T22:27:28.919Z,15.30
2024-02-14T22:30:01.460Z,12.00
2024-02-14T22:32:35.707Z,16.10
2024-02-14T22:35:10.472Z,13.50
2024-02-14T22:37:45.218Z,16.20
2024-02-14T22:40:19.846Z,12.30
2024-02-14T22:42:53.414Z,12.90
2024-02-14T22:45:28.066Z,16.20
2024-02-14T22:48:01.523Z,18.40
2024-02-14T22:50:34.154Z,14.20
2024-02-14T22:53:12.214Z,16.50
2024-02-14T22:55:44.914Z,13.10
2024-02-14T22:58:17.318Z,17.00
2024-02-14T23:00:50.890Z,13.60
2024-02-14T23:03:23.768Z,15.20
2024-02-14T23:05:56.675Z,13.70
2024-02-14T23:08:29.206Z,15.40
2024-02-14T23:11:01.658Z,16.90
2024-02-14T23:13:34.707Z,13.40
2024-02-14T23:16:10.398Z,16.50
2024-02-14T23:18:43.029Z,14.50
2024-02-14T23:21:16.467Z,14.10
2024-02-14T23:23:52.153Z,10.90
2024-02-14T23:26:24.870Z,13.30
2024-02-14T23:28:57.139Z,17.30
2024-02-14T23:31:29.538Z,9.50
2024-02-14T23:34:02.437Z,15.20
2024-02-14T23:36:38.999Z,12.20
2024-02-14T23:39:12.137Z,15.20
2024-02-14T23:41:44.588Z,20.50
2024-02-14T23:44:19.227Z,14.50
2024-02-14T23:46:52.919Z,15.40
2024-02-14T23:49:26.173Z,15.70
2024-02-14T23:51:58.614Z,12.70
2024-02-14T23:54:42.385Z,17.50
2024-02-14T23:57:14.717Z,16.70
2024-02-14T23:59:49.961Z,11.90
